Time;durP1;ratioP1;P1;durP2;ratioP2;P2;SDS_P1;SDS_P2;PMS_P1;PMS_P2;Temp;Humidity;BMP_temperature;BMP_pressure;BME280_temperature;BME280_humidity;BME280_pressure;Samples;Min_cycle;Max_cycle;Signal;HPM_P1;HPM_P2
2021/10/11 04:51:33;;;;;;;33.75;25.40;;;;;;;;;;5568620;23;20142;-89
2021/10/11 04:54:01;;;;;;;43.60;27.92;;;;;;;;;;4970160;28;20051;-91
2021/10/11 04:56:28;;;;;;;39.88;27.08;;;;;;;;;;4964305;28;20047;-91
2021/10/11 04:58:55;;;;;;;42.35;26.88;;;;;;;;;;4962595;28;20077;-91
2021/10/11 05:01:23;;;;;;;106.25;31.88;;;;;;;;;;4957502;28;20298;-92
2021/10/11 05:03:50;;;;;;;136.73;35.47;;;;;;;;;;4958654;28;20027;-90
2021/10/11 05:06:18;;;;;;;196.95;37.60;;;;;;;;;;4965847;28;20071;-90
2021/10/11 05:08:46;;;;;;;183.48;39.67;;;;;;;;;;4983400;28;20074;-91
2021/10/11 05:11:14;;;;;;;173.00;39.65;;;;;;;;;;4979041;28;20039;-92
2021/10/11 05:16:55;;;;;;;353.23;44.85;;;;;;;;;;4953672;28;20059;-91
2021/10/11 05:19:25;;;;;;;400.58;44.30;;;;;;;;;;4951121;29;20489;-90
2021/10/11 05:21:53;;;;;;;246.75;45.50;;;;;;;;;;4976593;28;20070;-91
2021/10/11 05:24:23;;;;;;;446.30;55.03;;;;;;;;;;4963076;28;20075;-90
2021/10/11 05:26:51;;;;;;;237.50;46.65;;;;;;;;;;4955655;28;20133;-91
2021/10/11 05:29:19;;;;;;;372.77;51.70;;;;;;;;;;4954994;28;20077;-91
2021/10/11 05:31:46;;;;;;;243.38;47.58;;;;;;;;;;4954232;28;20405;-91
2021/10/11 05:34:14;;;;;;;132.35;45.30;;;;;;;;;;4954462;28;20090;-91
2021/10/11 05:36:42;;;;;;;157.88;46.28;;;;;;;;;;4946694;28;20098;-91
2021/10/11 05:39:09;;;;;;;114.35;43.80;;;;;;;;;;4956516;28;20086;-92
2021/10/11 05:41:38;;;;;;;76.00;42.55;;;;;;;;;;4952343;28;20134;-91
2021/10/11 05:44:06;;;;;;;76.10;41.35;;;;;;;;;;4948248;28;20047;-91
2021/10/11 05:46:34;;;;;;;64.95;37.05;;;;;;;;;;4962883;28;20058;-91
2021/10/11 05:49:02;;;;;;;66.72;40.10;;;;;;;;;;4956504;28;20462;-91
2021/10/11 05:51:29;;;;;;;57.67;34.25;;;;;;;;;;4954016;28;20067;-92
2021/10/11 05:53:57;;;;;;;57.60;34.85;;;;;;;;;;4946777;29;20052;-91
2021/10/11 05:56:25;;;;;;;51.28;34.83;;;;;;;;;;4943130;28;20035;-91
2021/10/11 05:58:54;;;;;;;47.80;31.50;;;;;;;;;;4971431;28;20036;-93
2021/10/11 06:01:21;;;;;;;54.28;34.15;;;;;;;;;;4938259;28;20418;-91
2021/10/11 06:03:49;;;;;;;48.13;30.85;;;;;;;;;;4942503;28;20135;-91
2021/10/11 06:06:16;;;;;;;45.22;29.92;;;;;;;;;;4947962;28;20036;-92
2021/10/11 06:08:46;;;;;;;42.97;30.20;;;;;;;;;;4973408;28;20086;-91
2021/10/11 06:11:16;;;;;;;38.40;26.80;;;;;;;;;;4963065;28;20039;-92
2021/10/11 06:13:44;;;;;;;43.55;26.67;;;;;;;;;;4973995;28;20027;-92
2021/10/11 06:16:13;;;;;;;36.90;26.17;;;;;;;;;;4970235;28;20051;-92
2021/10/11 06:18:41;;;;;;;36.42;25.95;;;;;;;;;;4963875;28;20102;-92
2021/10/11 06:21:09;;;;;;;30.92;25.30;;;;;;;;;;4978175;28;20067;-92
2021/10/11 06:23:36;;;;;;;37.20;25.25;;;;;;;;;;4986476;28;20026;-91
2021/10/11 06:26:04;;;;;;;35.78;25.92;;;;;;;;;;4968400;28;20075;-91
2021/10/11 06:28:32;;;;;;;34.17;23.52;;;;;;;;;;4943992;28;20449;-92
2021/10/11 06:31:00;;;;;;;34.90;25.20;;;;;;;;;;4954997;29;20495;-92
2021/10/11 06:33:29;;;;;;;30.65;22.38;;;;;;;;;;4940896;28;20192;-91
2021/10/11 06:35:57;;;;;;;30.15;22.42;;;;;;;;;;4952884;28;20493;-92
2021/10/11 06:38:25;;;;;;;29.60;23.52;;;;;;;;;;4953911;28;20470;-91
2021/10/11 06:40:52;;;;;;;33.60;23.63;;;;;;;;;;4944257;29;20039;-92
2021/10/11 06:43:20;;;;;;;35.20;23.27;;;;;;;;;;4951727;28;20102;-91
2021/10/11 06:45:48;;;;;;;30.55;22.88;;;;;;;;;;4958673;28;20051;-91
2021/10/11 06:48:18;;;;;;;39.45;24.08;;;;;;;;;;4984256;28;20039;-90
2021/10/11 06:50:47;;;;;;;30.33;22.95;;;;;;;;;;4953805;28;20039;-91
2021/10/11 06:53:14;;;;;;;32.90;23.17;;;;;;;;;;4942893;28;20074;-92
2021/10/11 06:55:42;;;;;;;34.05;22.98;;;;;;;;;;4955424;28;20047;-92
2021/10/11 06:58:10;;;;;;;31.55;23.10;;;;;;;;;;4949178;28;20127;-91
2021/10/11 07:00:38;;;;;;;30.92;23.17;;;;;;;;;;4937163;29;20489;-91
2021/10/11 07:03:06;;;;;;;37.03;24.00;;;;;;;;;;4956051;28;20512;-92
2021/10/11 07:05:34;;;;;;;37.63;23.80;;;;;;;;;;4947300;28;20052;-91
2021/10/11 07:08:09;;;;;;;33.53;24.30;;;;;;;;;;4936867;28;20103;-92
2021/10/11 07:10:36;;;;;;;36.25;24.02;;;;;;;;;;4963728;28;20063;-91
2021/10/11 07:13:04;;;;;;;35.45;24.52;;;;;;;;;;4967883;28;20074;-92
2021/10/11 07:15:35;;;;;;;35.33;24.80;;;;;;;;;;4952665;28;20045;-91
2021/10/11 07:18:03;;;;;;;37.25;27.02;;;;;;;;;;4952046;28;20054;-93
2021/10/11 07:20:30;;;;;;;40.88;27.25;;;;;;;;;;4953876;28;20106;-92
2021/10/11 07:22:57;;;;;;;36.13;26.25;;;;;;;;;;4966735;28;20067;-91
2021/10/11 07:25:26;;;;;;;38.80;27.35;;;;;;;;;;4954194;28;20089;-91
2021/10/11 07:27:54;;;;;;;33.42;26.05;;;;;;;;;;4948889;28;20039;-92
2021/10/11 07:30:21;;;;;;;31.42;23.95;;;;;;;;;;4950269;28;20058;-92
2021/10/11 07:32:49;;;;;;;34.90;25.52;;;;;;;;;;4954396;28;20048;-92
2021/10/11 07:35:17;;;;;;;38.60;26.45;;;;;;;;;;4938637;28;20122;-92
2021/10/11 07:37:44;;;;;;;31.20;23.00;;;;;;;;;;4951249;28;20549;-91
2021/10/11 07:40:13;;;;;;;32.13;23.45;;;;;;;;;;4959761;28;20048;-92
2021/10/11 07:42:42;;;;;;;32.50;23.42;;;;;;;;;;4942606;28;20087;-92
2021/10/11 07:45:10;;;;;;;32.10;23.45;;;;;;;;;;4947488;28;20050;-92
2021/10/11 07:47:37;;;;;;;30.88;23.38;;;;;;;;;;4961954;28;20043;-92
2021/10/11 07:50:06;;;;;;;36.15;24.38;;;;;;;;;;4958679;28;20039;-92
2021/10/11 07:52:33;;;;;;;35.78;24.35;;;;;;;;;;4942360;28;20054;-92
2021/10/11 07:55:01;;;;;;;35.25;25.33;;;;;;;;;;4968408;28;20089;-92
2021/10/11 07:57:33;;;;;;;33.03;22.52;;;;;;;;;;4946599;28;20127;-92
2021/10/11 08:00:02;;;;;;;34.00;25.17;;;;;;;;;;4950227;28;20037;-92
2021/10/11 08:02:31;;;;;;;33.28;24.55;;;;;;;;;;4955654;28;20048;-91
2021/10/11 08:04:59;;;;;;;34.22;24.70;;;;;;;;;;4975507;28;20064;-92
2021/10/11 08:07:27;;;;;;;33.13;23.58;;;;;;;;;;4977952;28;20031;-92
2021/10/11 08:09:54;;;;;;;30.55;22.02;;;;;;;;;;4975903;28;20035;-93
2021/10/11 08:12:22;;;;;;;31.48;22.35;;;;;;;;;;4964644;28;20051;-92
2021/10/11 08:14:51;;;;;;;30.25;21.88;;;;;;;;;;4969903;28;20368;-91
2021/10/11 08:17:20;;;;;;;36.63;24.23;;;;;;;;;;4954591;28;20020;-92
2021/10/11 08:19:47;;;;;;;32.00;23.08;;;;;;;;;;4982376;28;20035;-92
2021/10/11 08:22:15;;;;;;;32.70;21.83;;;;;;;;;;4979118;28;20070;-93
2021/10/11 08:24:42;;;;;;;28.45;21.90;;;;;;;;;;4958355;28;20039;-91
2021/10/11 08:27:16;;;;;;;34.63;24.08;;;;;;;;;;4972181;28;20105;-92
2021/10/11 08:29:44;;;;;;;37.42;24.88;;;;;;;;;;4956439;28;20044;-92
2021/10/11 08:32:12;;;;;;;35.22;24.92;;;;;;;;;;4948284;28;20532;-92
2021/10/11 08:34:44;;;;;;;32.13;24.45;;;;;;;;;;4947544;28;20091;-92
2021/10/11 08:37:12;;;;;;;35.75;25.58;;;;;;;;;;4970493;28;20043;-92
2021/10/11 08:39:39;;;;;;;44.20;28.00;;;;;;;;;;4959102;28;20044;-92
2021/10/11 08:42:07;;;;;;;35.20;25.40;;;;;;;;;;4948058;28;20058;-93
2021/10/11 08:44:34;;;;;;;40.42;27.55;;;;;;;;;;4946067;28;20062;-92
2021/10/11 08:47:02;;;;;;;37.95;28.02;;;;;;;;;;4960085;28;20078;-93
2021/10/11 08:52:35;;;;;;;44.17;29.88;;;;;;;;;;4967396;28;20390;-92
2021/10/11 08:55:02;;;;;;;32.00;25.08;;;;;;;;;;4949965;28;20040;-91
2021/10/11 08:57:33;;;;;;;32.25;24.27;;;;;;;;;;4954908;28;20051;-91
2021/10/11 09:00:07;;;;;;;32.40;24.05;;;;;;;;;;4955317;28;20086;-91
2021/10/11 09:02:37;;;;;;;33.63;25.13;;;;;;;;;;4952960;28;20482;-91
2021/10/11 09:05:05;;;;;;;35.85;24.00;;;;;;;;;;4953134;28;20568;-92
2021/10/11 09:07:34;;;;;;;32.65;25.58;;;;;;;;;;4959137;28;20130;-92
2021/10/11 09:10:02;;;;;;;38.63;27.10;;;;;;;;;;4951547;28;20076;-91
2021/10/11 09:12:30;;;;;;;33.30;26.00;;;;;;;;;;4968540;28;20101;-92
2021/10/11 09:15:15;;;;;;;31.48;23.63;;;;;;;;;;4963291;28;20133;-92
2021/10/11 09:17:46;;;;;;;31.63;24.77;;;;;;;;;;4949754;28;20532;-92
2021/10/11 09:20:15;;;;;;;38.08;26.17;;;;;;;;;;4945607;28;20050;-92
2021/10/11 09:22:47;;;;;;;34.00;25.30;;;;;;;;;;4954860;28;20050;-92
2021/10/11 09:25:15;;;;;;;35.53;26.95;;;;;;;;;;4956167;28;20047;-92
2021/10/11 09:27:43;;;;;;;36.42;25.10;;;;;;;;;;4950775;28;20150;-92
2021/10/11 09:30:11;;;;;;;32.47;25.75;;;;;;;;;;4950151;28;20055;-92
2021/10/11 09:32:39;;;;;;;39.65;27.98;;;;;;;;;;4941441;28;20039;-92
2021/10/11 09:35:13;;;;;;;33.33;26.63;;;;;;;;;;4956052;28;20051;-92
2021/10/11 09:37:41;;;;;;;31.17;26.52;;;;;;;;;;4951879;28;20067;-93
2021/10/11 09:40:13;;;;;;;34.25;26.15;;;;;;;;;;4958211;28;20548;-92
2021/10/11 09:42:40;;;;;;;33.58;26.52;;;;;;;;;;4963014;28;20047;-93
2021/10/11 09:45:47;;;;;;;34.92;26.55;;;;;;;;;;4964716;28;20058;-92
2021/10/11 09:48:17;;;;;;;30.13;24.30;;;;;;;;;;4948869;28;20046;-91
2021/10/11 09:50:45;;;;;;;33.65;26.35;;;;;;;;;;4959087;28;20077;-91
2021/10/11 09:53:16;;;;;;;30.63;24.85;;;;;;;;;;4949226;28;20514;-92
2021/10/11 09:55:46;;;;;;;31.05;25.38;;;;;;;;;;4956004;28;20027;-92
2021/10/11 09:58:14;;;;;;;30.33;24.15;;;;;;;;;;4942281;28;20055;-92
2021/10/11 10:00:42;;;;;;;32.28;24.73;;;;;;;;;;4952235;28;20043;-91
2021/10/11 10:03:12;;;;;;;35.80;26.35;;;;;;;;;;4959182;28;20032;-92
2021/10/11 10:05:44;;;;;;;32.85;24.75;;;;;;;;;;4965936;28;20027;-91
2021/10/11 10:08:15;;;;;;;34.80;24.65;;;;;;;;;;4963081;28;20058;-91
2021/10/11 10:10:48;;;;;;;31.80;24.67;;;;;;;;;;4959953;29;20111;-92
2021/10/11 10:13:19;;;;;;;29.15;24.83;;;;;;;;;;4975237;28;20024;-92
2021/10/11 10:15:50;;;;;;;31.98;24.73;;;;;;;;;;4963912;28;20046;-91
2021/10/11 10:18:18;;;;;;;31.92;24.20;;;;;;;;;;4941744;28;20138;-92
2021/10/11 10:20:54;;;;;;;30.55;25.10;;;;;;;;;;4950606;28;20027;-91
2021/10/11 10:23:28;;;;;;;34.10;25.92;;;;;;;;;;4962026;28;20067;-92
2021/10/11 10:25:56;;;;;;;34.33;25.58;;;;;;;;;;4943165;28;20055;-91
2021/10/11 10:28:26;;;;;;;33.40;25.85;;;;;;;;;;4958582;28;20052;-91
2021/10/11 10:30:57;;;;;;;34.72;25.52;;;;;;;;;;4942001;28;20039;-92
2021/10/11 10:33:34;;;;;;;32.95;25.05;;;;;;;;;;4951504;28;20051;-92
2021/10/11 10:36:01;;;;;;;34.42;25.90;;;;;;;;;;4941667;28;20040;-92
2021/10/11 10:38:29;;;;;;;34.35;25.23;;;;;;;;;;4945746;28;20489;-91
2021/10/11 10:40:56;;;;;;;31.85;24.95;;;;;;;;;;4956456;28;20477;-91
2021/10/11 10:43:24;;;;;;;34.13;26.58;;;;;;;;;;4956531;28;20050;-92
2021/10/11 10:45:53;;;;;;;35.35;26.65;;;;;;;;;;4966125;28;20199;-91
2021/10/11 10:48:22;;;;;;;46.38;27.25;;;;;;;;;;4956955;28;20043;-92
2021/10/11 10:50:51;;;;;;;33.30;25.08;;;;;;;;;;4948554;28;20521;-91
2021/10/11 10:53:19;;;;;;;36.85;26.17;;;;;;;;;;4949346;28;20417;-91
2021/10/11 10:55:46;;;;;;;33.15;25.63;;;;;;;;;;4953714;28;20069;-91
2021/10/11 10:58:16;;;;;;;34.85;27.13;;;;;;;;;;4954419;28;20043;-92
2021/10/11 11:00:44;;;;;;;35.28;27.30;;;;;;;;;;4949512;28;20188;-91
2021/10/11 11:03:14;;;;;;;33.45;26.38;;;;;;;;;;4945626;28;20032;-92
2021/10/11 11:05:42;;;;;;;32.90;26.10;;;;;;;;;;4975745;28;20027;-91
2021/10/11 11:10:52;;;;;;;34.60;27.42;;;;;;;;;;4965245;28;20031;-91
2021/10/11 11:13:19;;;;;;;33.85;25.58;;;;;;;;;;4967351;28;20514;-93
2021/10/11 11:15:48;;;;;;;36.55;26.98;;;;;;;;;;4954344;28;20039;-92
2021/10/11 11:18:18;;;;;;;37.00;27.67;;;;;;;;;;4936290;29;20442;-92
2021/10/11 11:20:46;;;;;;;41.20;27.23;;;;;;;;;;4937794;29;20054;-91
2021/10/11 11:23:14;;;;;;;37.78;27.70;;;;;;;;;;4943506;28;20054;-92
2021/10/11 11:25:42;;;;;;;35.65;27.15;;;;;;;;;;4935509;28;20040;-91
2021/10/11 11:28:11;;;;;;;34.03;27.35;;;;;;;;;;4936465;29;20048;-91
2021/10/11 11:30:40;;;;;;;32.55;26.95;;;;;;;;;;4941626;28;20482;-92
2021/10/11 11:33:09;;;;;;;34.83;28.25;;;;;;;;;;4941314;28;20446;-92
2021/10/11 11:35:40;;;;;;;38.90;28.08;;;;;;;;;;4951704;28;20048;-92
2021/10/11 11:38:10;;;;;;;37.03;28.58;;;;;;;;;;4954126;28;20130;-91
2021/10/11 11:40:39;;;;;;;38.20;27.92;;;;;;;;;;4954125;28;20058;-92
2021/10/11 11:43:09;;;;;;;40.22;28.33;;;;;;;;;;4932832;29;20047;-92
2021/10/11 11:45:38;;;;;;;36.60;28.60;;;;;;;;;;4940274;28;20039;-92
2021/10/11 11:48:06;;;;;;;34.05;27.67;;;;;;;;;;4953690;28;20117;-92
2021/10/11 11:50:33;;;;;;;35.40;28.58;;;;;;;;;;4953850;28;20062;-91
2021/10/11 11:53:04;;;;;;;36.88;28.60;;;;;;;;;;4955516;28;20055;-91
2021/10/11 11:55:31;;;;;;;36.08;27.92;;;;;;;;;;4955349;28;20040;-92
2021/10/11 11:57:59;;;;;;;37.28;28.17;;;;;;;;;;4967070;28;20044;-93
2021/10/11 12:00:30;;;;;;;39.83;30.10;;;;;;;;;;4952127;28;20049;-91
2021/10/11 12:02:58;;;;;;;36.40;28.67;;;;;;;;;;4962818;28;20055;-92
2021/10/11 12:05:25;;;;;;;37.45;28.90;;;;;;;;;;4961815;28;20050;-92
2021/10/11 12:07:54;;;;;;;33.10;27.98;;;;;;;;;;4960471;28;20024;-91
2021/10/11 12:10:24;;;;;;;31.55;26.58;;;;;;;;;;4954577;28;20051;-92
2021/10/11 12:12:58;;;;;;;40.25;26.95;;;;;;;;;;4974091;28;20456;-91
2021/10/11 12:15:26;;;;;;;33.88;26.65;;;;;;;;;;4959527;28;20462;-91
2021/10/11 12:18:03;;;;;;;32.25;26.40;;;;;;;;;;4948899;28;20040;-92
2021/10/11 12:20:40;;;;;;;33.75;27.25;;;;;;;;;;4951128;28;20047;-91
2021/10/11 12:23:15;;;;;;;36.42;25.90;;;;;;;;;;4938029;28;20059;-91
2021/10/11 12:25:46;;;;;;;38.03;27.87;;;;;;;;;;4951454;28;20047;-92
2021/10/11 12:28:14;;;;;;;32.10;27.35;;;;;;;;;;4944470;28;20047;-91
2021/10/11 12:30:42;;;;;;;35.63;28.30;;;;;;;;;;4936949;28;20051;-91
2021/10/11 12:33:14;;;;;;;34.50;27.98;;;;;;;;;;4941741;28;20054;-91
2021/10/11 12:35:42;;;;;;;33.10;27.65;;;;;;;;;;4951232;28;20523;-91
2021/10/11 12:38:11;;;;;;;35.08;28.50;;;;;;;;;;4946388;28;20044;-91
2021/10/11 12:40:39;;;;;;;31.95;27.00;;;;;;;;;;4939114;28;20584;-92
2021/10/11 12:43:15;;;;;;;33.83;27.15;;;;;;;;;;4960069;28;20050;-92
2021/10/11 12:45:42;;;;;;;36.40;28.20;;;;;;;;;;4976150;28;20046;-92
2021/10/11 12:48:10;;;;;;;35.25;27.85;;;;;;;;;;4948993;28;20039;-92
2021/10/11 12:50:38;;;;;;;34.25;28.20;;;;;;;;;;4951056;28;20497;-92
2021/10/11 12:53:08;;;;;;;38.55;26.90;;;;;;;;;;4949196;28;20055;-92
2021/10/11 12:55:36;;;;;;;38.90;29.08;;;;;;;;;;4952721;28;20130;-92
2021/10/11 12:58:04;;;;;;;37.15;29.25;;;;;;;;;;4946583;28;20055;-92
2021/10/11 13:00:34;;;;;;;34.72;28.10;;;;;;;;;;4941760;28;20380;-92
2021/10/11 13:03:02;;;;;;;29.73;25.48;;;;;;;;;;4942490;28;20482;-92
2021/10/11 13:05:29;;;;;;;29.88;26.73;;;;;;;;;;4964580;28;20433;-91
2021/10/11 13:07:58;;;;;;;34.95;26.27;;;;;;;;;;4950969;28;20047;-92
2021/10/11 13:10:26;;;;;;;29.88;25.02;;;;;;;;;;4950241;28;20067;-92
2021/10/11 13:12:54;;;;;;;34.63;24.98;;;;;;;;;;4940919;28;20292;-92
2021/10/11 13:15:21;;;;;;;33.35;25.85;;;;;;;;;;4955552;28;20079;-92
2021/10/11 13:17:50;;;;;;;32.28;26.25;;;;;;;;;;4963549;28;20051;-92
2021/10/11 13:20:18;;;;;;;28.35;24.02;;;;;;;;;;4950888;28;20467;-92
2021/10/11 13:22:49;;;;;;;32.80;23.80;;;;;;;;;;4944791;28;20046;-92
2021/10/11 13:25:17;;;;;;;31.77;25.25;;;;;;;;;;4959224;28;20043;-92
2021/10/11 13:27:44;;;;;;;27.25;23.50;;;;;;;;;;4956166;28;20049;-91
2021/10/11 13:30:46;;;;;;;30.70;24.05;;;;;;;;;;4951324;28;20047;-92
2021/10/11 14:28:28;;;;;;;37.03;28.20;;;;;;;;;;4949452;28;20074;-91
2021/10/11 14:31:08;;;;;;;29.65;21.88;;;;;;;;;;4936237;29;20228;-91
2021/10/11 14:33:56;;;;;;;30.35;20.80;;;;;;;;;;4941971;28;20051;-90
2021/10/11 15:59:07;;;;;;;11.23;6.53;;;;;;;;;;4927928;29;20039;-90
2021/10/11 16:01:50;;;;;;;14.20;6.50;;;;;;;;;;4973443;28;20054;-90
2021/10/11 16:04:18;;;;;;;13.10;6.32;;;;;;;;;;4970381;28;20043;-91
2021/10/11 16:06:45;;;;;;;10.60;6.13;;;;;;;;;;4939148;28;20489;-92
2021/10/11 16:09:13;;;;;;;14.30;6.38;;;;;;;;;;4953859;28;20143;-91
2021/10/11 16:11:41;;;;;;;11.70;6.13;;;;;;;;;;4955416;28;20043;-91
2021/10/11 16:14:09;;;;;;;13.23;6.25;;;;;;;;;;4960400;28;20050;-91
2021/10/11 16:16:38;;;;;;;14.50;6.38;;;;;;;;;;4951218;28;20043;-91
2021/10/11 16:19:06;;;;;;;11.38;6.70;;;;;;;;;;4955438;28;20062;-92
2021/10/11 16:21:34;;;;;;;16.15;6.70;;;;;;;;;;4952551;28;20537;-91
2021/10/11 16:24:03;;;;;;;10.88;6.95;;;;;;;;;;4952764;28;20055;-91
2021/10/11 16:26:30;;;;;;;12.10;6.55;;;;;;;;;;4941287;28;20524;-91
2021/10/11 16:28:59;;;;;;;14.02;7.22;;;;;;;;;;4950911;28;20087;-91
2021/10/11 16:31:26;;;;;;;20.55;7.78;;;;;;;;;;4965334;28;20046;-90
2021/10/11 16:33:55;;;;;;;19.85;7.70;;;;;;;;;;4956908;28;20043;-91
2021/10/11 16:36:23;;;;;;;14.13;7.90;;;;;;;;;;4940056;28;20066;-90
2021/10/11 16:38:51;;;;;;;15.63;7.63;;;;;;;;;;4951662;28;20054;-91
2021/10/11 16:41:18;;;;;;;19.42;7.53;;;;;;;;;;4952924;28;20052;-90
2021/10/11 16:43:46;;;;;;;24.60;8.65;;;;;;;;;;4945247;28;20048;-91
2021/10/11 16:46:14;;;;;;;16.33;7.70;;;;;;;;;;4950350;28;20054;-91
2021/10/11 16:48:42;;;;;;;19.10;8.43;;;;;;;;;;4942021;29;20055;-91
2021/10/11 16:51:11;;;;;;;21.08;9.02;;;;;;;;;;4956238;28;20048;-90
2021/10/11 16:56:36;;;;;;;22.23;9.65;;;;;;;;;;4957929;28;20051;-90
2021/10/11 16:59:06;;;;;;;18.77;10.80;;;;;;;;;;4952887;28;20085;-91
2021/10/11 17:01:33;;;;;;;19.42;10.80;;;;;;;;;;4956440;28;20126;-90
2021/10/11 17:04:03;;;;;;;21.27;11.05;;;;;;;;;;4953324;28;20048;-91
2021/10/11 17:06:32;;;;;;;20.90;10.82;;;;;;;;;;4961116;28;20035;-90
2021/10/11 17:09:01;;;;;;;20.27;10.07;;;;;;;;;;4976099;28;20091;-91
2021/10/11 17:11:29;;;;;;;18.90;10.70;;;;;;;;;;4992929;28;20027;-90
2021/10/11 17:13:59;;;;;;;15.20;8.13;;;;;;;;;;4978628;28;20055;-90
2021/10/11 17:16:28;;;;;;;15.20;8.70;;;;;;;;;;4955350;28;20055;-90
2021/10/11 17:18:56;;;;;;;18.63;7.72;;;;;;;;;;4950641;28;20043;-90
2021/10/11 17:21:24;;;;;;;13.60;6.30;;;;;;;;;;4954015;28;20035;-91
2021/10/11 17:23:55;;;;;;;13.88;6.35;;;;;;;;;;4952108;28;20079;-90
2021/10/11 17:26:23;;;;;;;23.27;7.03;;;;;;;;;;4951223;28;20047;-90
2021/10/11 17:28:51;;;;;;;20.50;7.50;;;;;;;;;;4957304;28;20101;-89
2021/10/11 17:31:19;;;;;;;16.40;6.72;;;;;;;;;;4966033;28;20044;-90
2021/10/11 17:33:47;;;;;;;16.77;8.07;;;;;;;;;;4956642;28;20044;-90
2021/10/11 17:36:16;;;;;;;30.00;15.63;;;;;;;;;;4955249;28;20039;-90
2021/10/11 17:38:43;;;;;;;28.02;16.67;;;;;;;;;;4949449;28;20099;-90
2021/10/11 17:41:12;;;;;;;18.80;7.20;;;;;;;;;;4953764;28;20039;-90
2021/10/11 17:43:40;;;;;;;18.00;6.97;;;;;;;;;;4960217;28;20031;-89
2021/10/11 17:46:10;;;;;;;16.50;9.00;;;;;;;;;;4983001;28;20027;-91
2021/10/11 17:48:39;;;;;;;18.63;9.00;;;;;;;;;;4984228;28;20035;-91
2021/10/11 17:51:07;;;;;;;19.90;8.52;;;;;;;;;;4984108;28;20058;-90
2021/10/11 17:53:35;;;;;;;13.95;7.95;;;;;;;;;;4974769;28;20063;-91
2021/10/11 17:56:03;;;;;;;17.70;7.70;;;;;;;;;;4970339;28;20034;-90
2021/10/11 17:58:32;;;;;;;14.90;8.02;;;;;;;;;;4969550;28;20111;-90
2021/10/11 18:00:59;;;;;;;16.45;7.65;;;;;;;;;;4963819;28;20101;-90
2021/10/11 18:03:27;;;;;;;15.20;7.55;;;;;;;;;;4967035;28;20043;-90
2021/10/11 18:05:54;;;;;;;17.92;8.93;;;;;;;;;;4972691;28;20066;-91
2021/10/11 18:08:22;;;;;;;19.25;8.88;;;;;;;;;;4944673;28;20055;-91
2021/10/11 18:10:49;;;;;;;16.30;9.45;;;;;;;;;;4948699;28;20047;-90
2021/10/11 18:13:17;;;;;;;23.08;10.23;;;;;;;;;;4968714;28;20047;-91
2021/10/11 18:15:46;;;;;;;21.20;11.80;;;;;;;;;;4958431;28;20125;-90
2021/10/11 18:18:16;;;;;;;16.90;9.32;;;;;;;;;;4952539;28;20063;-90
2021/10/11 18:20:44;;;;;;;22.98;9.95;;;;;;;;;;4938893;28;20142;-91
2021/10/11 18:23:12;;;;;;;21.67;9.77;;;;;;;;;;4942099;28;20051;-91
2021/10/11 18:25:40;;;;;;;22.48;9.73;;;;;;;;;;4947634;28;20058;-90
2021/10/11 18:28:08;;;;;;;18.60;10.63;;;;;;;;;;4968139;28;20035;-90
2021/10/11 18:30:36;;;;;;;20.00;10.05;;;;;;;;;;4946934;28;20043;-90
2021/10/11 18:33:05;;;;;;;15.85;9.57;;;;;;;;;;4945953;28;20066;-90
2021/10/11 18:35:33;;;;;;;21.20;9.18;;;;;;;;;;4970309;28;20335;-90
2021/10/11 18:38:00;;;;;;;14.00;8.73;;;;;;;;;;4950100;28;20048;-90
2021/10/11 18:40:28;;;;;;;15.27;9.73;;;;;;;;;;4949785;28;20043;-90
2021/10/11 18:42:56;;;;;;;15.82;8.35;;;;;;;;;;4949415;28;20249;-90
2021/10/11 18:45:23;;;;;;;24.38;10.23;;;;;;;;;;4953861;28;20047;-90
2021/10/11 18:47:51;;;;;;;19.85;10.10;;;;;;;;;;4950607;28;20043;-89
2021/10/11 18:50:20;;;;;;;20.55;9.27;;;;;;;;;;4943244;28;20048;-90
2021/10/11 18:52:48;;;;;;;22.20;10.35;;;;;;;;;;4944870;28;20043;-90
2021/10/11 18:55:19;;;;;;;14.27;8.75;;;;;;;;;;4955301;28;20509;-90
2021/10/11 18:57:46;;;;;;;17.38;8.60;;;;;;;;;;4954181;28;20098;-90
2021/10/11 19:00:15;;;;;;;15.50;6.85;;;;;;;;;;4952889;28;20053;-90
2021/10/11 19:02:42;;;;;;;14.27;7.20;;;;;;;;;;4948174;28;20055;-91
2021/10/11 19:05:12;;;;;;;12.45;6.55;;;;;;;;;;4940123;28;20047;-90
2021/10/11 19:07:41;;;;;;;18.55;7.82;;;;;;;;;;4955297;28;20071;-90
2021/10/11 19:10:10;;;;;;;19.95;6.55;;;;;;;;;;4952054;28;20104;-90
2021/10/11 19:12:37;;;;;;;13.88;5.53;;;;;;;;;;4948252;28;20040;-90
2021/10/11 19:15:05;;;;;;;18.92;6.63;;;;;;;;;;4939501;28;20533;-90
2021/10/11 19:17:33;;;;;;;16.15;6.70;;;;;;;;;;4938237;29;20075;-90
2021/10/11 19:20:01;;;;;;;14.82;7.35;;;;;;;;;;4954695;28;20089;-90
2021/10/11 19:22:29;;;;;;;17.13;7.07;;;;;;;;;;4944703;28;20098;-91
2021/10/11 19:24:58;;;;;;;13.18;6.75;;;;;;;;;;4945934;28;20067;-90
2021/10/11 19:27:26;;;;;;;16.30;6.97;;;;;;;;;;4950905;28;20058;-90
2021/10/11 19:29:55;;;;;;;13.82;6.45;;;;;;;;;;4953461;28;20120;-90
2021/10/11 19:32:24;;;;;;;13.38;8.02;;;;;;;;;;4945275;28;20084;-90
2021/10/11 19:34:52;;;;;;;18.73;8.48;;;;;;;;;;4946337;28;20114;-90
2021/10/11 19:37:21;;;;;;;15.38;8.27;;;;;;;;;;4944956;28;20044;-91
2021/10/11 19:39:49;;;;;;;18.83;9.30;;;;;;;;;;4945508;28;20127;-91
2021/10/11 19:42:19;;;;;;;21.63;10.25;;;;;;;;;;4939534;28;20048;-90
2021/10/11 19:44:47;;;;;;;15.75;9.45;;;;;;;;;;4953327;28;20058;-90
2021/10/11 19:47:14;;;;;;;17.63;10.07;;;;;;;;;;4950567;28;20469;-91
2021/10/11 19:49:42;;;;;;;23.95;10.35;;;;;;;;;;4972271;28;20099;-91
2021/10/11 19:52:10;;;;;;;22.38;10.23;;;;;;;;;;4963653;28;20042;-90
2021/10/11 19:54:39;;;;;;;28.42;10.48;;;;;;;;;;4967843;28;20082;-91
2021/10/11 19:57:06;;;;;;;18.63;10.88;;;;;;;;;;4962585;28;20039;-91
2021/10/11 19:59:37;;;;;;;17.90;10.00;;;;;;;;;;4953990;28;20047;-90
2021/10/11 20:02:07;;;;;;;22.33;10.20;;;;;;;;;;4946907;28;20040;-90
2021/10/11 20:04:38;;;;;;;22.52;10.18;;;;;;;;;;4971054;28;20032;-90
2021/10/11 20:07:06;;;;;;;20.35;9.57;;;;;;;;;;4967361;28;20027;-91
2021/10/11 20:09:34;;;;;;;20.90;10.27;;;;;;;;;;4975424;28;20099;-91
2021/10/11 20:12:09;;;;;;;19.48;9.07;;;;;;;;;;4985933;28;20051;-90
2021/10/11 20:14:39;;;;;;;23.02;8.40;;;;;;;;;;4960552;28;20095;-90
2021/10/11 20:17:06;;;;;;;21.85;9.00;;;;;;;;;;4946140;28;20039;-90
2021/10/11 20:19:35;;;;;;;20.70;8.85;;;;;;;;;;4951134;28;20089;-90
2021/10/11 20:22:02;;;;;;;16.88;8.85;;;;;;;;;;4952610;28;20054;-90
2021/10/11 20:24:30;;;;;;;16.00;8.13;;;;;;;;;;4953464;28;20075;-90
2021/10/11 20:26:58;;;;;;;17.00;8.93;;;;;;;;;;4956723;28;20078;-91
2021/10/11 20:29:27;;;;;;;15.23;7.93;;;;;;;;;;4965238;28;20039;-91
2021/10/11 20:31:56;;;;;;;24.20;8.57;;;;;;;;;;4940938;28;20048;-91
2021/10/11 20:34:24;;;;;;;16.05;8.40;;;;;;;;;;4952468;28;20036;-90
2021/10/11 20:36:52;;;;;;;22.42;9.05;;;;;;;;;;4950230;28;20086;-90
2021/10/11 20:39:19;;;;;;;20.23;8.05;;;;;;;;;;4957280;28;20059;-90
2021/10/11 20:41:47;;;;;;;21.98;8.27;;;;;;;;;;4972113;28;20476;-90
2021/10/11 20:44:15;;;;;;;15.40;8.40;;;;;;;;;;4960410;28;20049;-90
2021/10/11 20:46:42;;;;;;;20.08;8.80;;;;;;;;;;4965019;28;20445;-91
2021/10/11 20:49:13;;;;;;;24.65;9.23;;;;;;;;;;4959070;28;20054;-90
2021/10/11 20:51:41;;;;;;;17.98;9.13;;;;;;;;;;4953705;28;20044;-91
2021/10/11 20:54:08;;;;;;;19.70;9.02;;;;;;;;;;4964281;28;20076;-90
2021/10/11 20:56:36;;;;;;;19.75;10.30;;;;;;;;;;4968717;28;20470;-90
2021/10/11 20:59:05;;;;;;;23.48;9.90;;;;;;;;;;4956782;28;20071;-91
2021/10/11 21:01:33;;;;;;;28.00;10.75;;;;;;;;;;4948000;28;20036;-90
2021/10/11 21:04:00;;;;;;;25.15;11.57;;;;;;;;;;4954285;29;20047;-91
2021/10/11 21:06:29;;;;;;;20.92;11.40;;;;;;;;;;4941894;28;20057;-90
2021/10/11 21:08:57;;;;;;;24.95;11.30;;;;;;;;;;4942584;28;20134;-89
2021/10/11 21:11:24;;;;;;;32.30;12.40;;;;;;;;;;4943484;28;20039;-90
2021/10/11 21:13:52;;;;;;;23.45;11.02;;;;;;;;;;4938929;29;20070;-90
2021/10/11 21:16:19;;;;;;;24.00;11.73;;;;;;;;;;4942871;28;20044;-90
2021/10/11 21:18:47;;;;;;;27.65;11.80;;;;;;;;;;4957080;28;20043;-90
2021/10/11 21:21:14;;;;;;;28.30;11.70;;;;;;;;;;4964571;28;20039;-91
2021/10/11 21:23:43;;;;;;;30.52;11.88;;;;;;;;;;4940725;28;20048;-90
2021/10/11 21:26:11;;;;;;;28.98;12.23;;;;;;;;;;4943715;28;20094;-90
2021/10/11 21:28:39;;;;;;;28.33;11.88;;;;;;;;;;4964557;28;20028;-91
